עמוד ראשי
METAR-TAF:

METAR-TAF

שדות תעופה :

Tiree, סקוטלנד

קו רוחב: 56-30N, קו אורך: 006-53W, גובה: 12מטר

תצפית מזג אוויר נוכחית

הדו"ח נערך לפני 5 שעות ו 3דקות, בשעה 16:50 UTC
רוח 8קשר מכיוון דרום
טמפרטורת 16 צלסיוס
לחות 77%
לחץ 1014 hPa
ראות 10 קילומטר או יותר
ללא עננים שבסיסם נמוך מ 5000 רגל או קומולונימבוס

METAR: EGPU 201650Z 19008KT CAVOK 16/12 Q1014

זמן: 22:53 (21:53 UTC)

תחזית

הדו"ח נערך לפני 7 שעות ו 51דקות, בשעה 14:02 UTC
תחזית בתוקף מ 20 ב 15 UTC עד 20 ב 18 UTC
רוח 9קשר מכיוון דרום
ראות 10 קילומטר או יותר
מעט עננים בגובה 4000רגל

TAF: EGPU 201402Z 2015/2018 17009KT 9999 FEW040

תצפיות ותחזיות מזג אוויר לגבי יותר מ- 4,000 שדות תעופה ברחבי העולם. דוחות METAR ו- TAF.

התחנות הזמינות מסומנות בנקודות צהובות ואדומות על גבי המפה.

העבר את העכבר לנקודה הצבעונית על מנת לראות את שם התחנה.

לאחר מכן, לחץ כדי לראות את תוכן ואת תחזיות מזג האוויר.

כדי לשנות את המפה: לחץ על הכפתורים הירוקים עם הפלוס השחור כדי להתקרב; על הכפתור הירוק עם המקף כדי להתרחק; או בחיצים הירוקים למפות סמוכות.


METAR-TAF: